Terminal Aerodrome Forecast
Issued by NWS Duluth, MN

Home | Current Version | Previous Version | Text Only | Print | Product List | Glossary On
Versions: 1 2 3 4 5 6 7 8 9 10 11 12 13 14 15 16 17
000
FTUS43 KDLH 190500
TAFDLH
TAF
KDLH 190539Z 1906/2006 09014KT P6SM SCT070 BKN250 WS020/18030KT
     FM190900 10017G23KT P6SM VCSH OVC050
     FM191100 13019G25KT 2SM -FZRA OVC045
     FM191300 14014G24KT 3SM -RA BR OVC035
     FM191700 17008KT P6SM VCSH OVC060
     FM192300 VRB05KT 4SM BR SCT060=

USA.gov is the U.S. government's official web portal to all federal, state and local government web resources and services.